createdAt,value
2023-03-19T00:00:18.093Z,10.60
2023-03-19T00:01:22.619Z,10.83
2023-03-19T00:02:24.458Z,8.33
2023-03-19T00:03:28.817Z,9.27
2023-03-19T00:04:30.659Z,9.00
2023-03-19T00:05:32.510Z,10.23
2023-03-19T00:06:34.687Z,8.03
2023-03-19T00:07:39.549Z,9.57
2023-03-19T00:08:42.355Z,11.63
2023-03-19T00:09:50.290Z,14.03
2023-03-19T00:11:13.580Z,13.17
2023-03-19T00:12:35.977Z,13.37
2023-03-19T00:13:37.364Z,11.43
2023-03-19T00:14:38.772Z,10.53
2023-03-19T00:15:40.206Z,12.03
2023-03-19T00:16:41.694Z,11.13
2023-03-19T00:17:43.718Z,10.33
2023-03-19T00:18:45.070Z,10.07
2023-03-19T00:19:46.614Z,10.60
2023-03-19T00:20:47.971Z,11.30
2023-03-19T00:21:49.385Z,10.53
2023-03-19T00:22:51.111Z,28.47
2023-03-19T00:23:52.579Z,52.57
2023-03-19T00:24:53.912Z,159.73
2023-03-19T00:25:55.516Z,125.50
2023-03-19T00:26:56.970Z,127.67
2023-03-19T00:27:59.820Z,156.23
2023-03-19T00:29:01.731Z,68.93
2023-03-19T00:30:04.746Z,36.00
2023-03-19T00:31:06.890Z,58.77
2023-03-19T00:32:08.329Z,20.57
2023-03-19T00:33:10.018Z,15.87
2023-03-19T00:34:13.207Z,10.97
2023-03-19T00:35:14.766Z,11.90
2023-03-19T00:36:16.501Z,9.17
2023-03-19T00:37:18.209Z,6.90
2023-03-19T00:38:19.672Z,7.70
2023-03-19T00:39:21.672Z,8.80
2023-03-19T00:40:23.018Z,8.70
2023-03-19T00:41:24.603Z,7.53
2023-03-19T00:42:26.068Z,7.03
2023-03-19T00:43:28.081Z,9.50
2023-03-19T00:44:29.461Z,10.37
2023-03-19T00:45:31.137Z,9.23
2023-03-19T00:46:32.709Z,8.93
2023-03-19T00:47:34.241Z,7.67
2023-03-19T00:48:35.670Z,10.90
2023-03-19T00:49:37.043Z,9.27
2023-03-19T00:50:38.360Z,7.10
2023-03-19T00:51:43.687Z,7.33
2023-03-19T00:52:45.092Z,10.17
2023-03-19T00:53:46.432Z,8.30
2023-03-19T00:54:47.846Z,8.07
2023-03-19T00:55:49.207Z,7.37
2023-03-19T00:56:50.731Z,6.50
2023-03-19T00:57:52.304Z,10.60
2023-03-19T00:58:53.696Z,8.53
2023-03-19T00:59:55.183Z,8.47
2023-03-19T01:00:56.859Z,6.87
2023-03-19T01:01:58.309Z,10.00
2023-03-19T01:03:00.167Z,8.07
2023-03-19T01:04:01.613Z,7.13
2023-03-19T01:05:03.167Z,6.43
2023-03-19T01:06:05.161Z,8.73
2023-03-19T01:07:06.678Z,9.30
2023-03-19T01:08:08.129Z,7.67
2023-03-19T01:09:10.564Z,7.73
2023-03-19T01:10:12.166Z,8.03
2023-03-19T01:11:14.608Z,7.93
2023-03-19T01:12:16.405Z,8.93
2023-03-19T01:13:17.752Z,6.90
2023-03-19T01:14:19.132Z,7.73
2023-03-19T01:16:21.761Z,9.07
2023-03-19T01:17:23.144Z,8.13
2023-03-19T01:18:24.518Z,12.30
2023-03-19T01:19:26.251Z,7.10
2023-03-19T01:20:27.813Z,8.23
2023-03-19T01:21:32.139Z,6.93
2023-03-19T01:22:35.947Z,10.10
2023-03-19T01:23:37.535Z,6.87
2023-03-19T01:24:38.860Z,8.13
2023-03-19T01:25:40.331Z,8.30
2023-03-19T01:26:41.907Z,8.73
2023-03-19T01:28:04.986Z,8.67
2023-03-19T01:29:07.107Z,7.43
2023-03-19T01:30:09.169Z,8.57
2023-03-19T01:31:30.668Z,8.03
2023-03-19T01:32:52.376Z,8.67
2023-03-19T01:34:11.343Z,9.93
2023-03-19T01:35:25.313Z,9.77
2023-03-19T01:36:27.222Z,9.83
2023-03-19T01:37:34.645Z,7.60
2023-03-19T01:38:36.144Z,12.37
2023-03-19T01:39:40.484Z,12.03
2023-03-19T01:40:48.532Z,11.90
2023-03-19T01:41:50.534Z,11.53
2023-03-19T01:43:25.458Z,12.27
2023-03-19T01:44:32.220Z,11.93
2023-03-19T01:45:58.837Z,8.67
2023-03-19T01:47:28.385Z,10.80
2023-03-19T01:49:04.583Z,7.07
2023-03-19T01:50:06.476Z,10.03
2023-03-19T01:51:09.765Z,11.63
2023-03-19T01:52:33.316Z,8.30
2023-03-19T01:53:51.507Z,10.63
2023-03-19T01:55:07.396Z,8.77
2023-03-19T01:56:32.434Z,7.40
2023-03-19T01:57:39.410Z,8.90
2023-03-19T01:58:57.517Z,7.20
2023-03-19T02:00:17.495Z,7.83
2023-03-19T02:01:20.504Z,7.67
2023-03-19T02:02:27.972Z,7.60
2023-03-19T02:03:30.692Z,6.80
2023-03-19T02:05:09.342Z,7.67
2023-03-19T02:06:12.151Z,6.63
2023-03-19T02:07:13.752Z,8.20
2023-03-19T02:08:16.193Z,6.87
2023-03-19T02:09:18.814Z,7.20
2023-03-19T02:10:21.659Z,8.03
2023-03-19T02:11:23.452Z,7.70
2023-03-19T02:12:24.913Z,8.13
2023-03-19T02:13:27.819Z,8.77
2023-03-19T02:14:29.254Z,8.07
2023-03-19T02:15:31.362Z,8.87
2023-03-19T02:16:32.906Z,9.17
2023-03-19T02:17:34.421Z,7.50
2023-03-19T02:18:36.208Z,10.80
2023-03-19T02:20:01.644Z,8.17
2023-03-19T02:21:04.795Z,8.10
2023-03-19T02:22:07.037Z,11.10
2023-03-19T02:23:20.350Z,8.27
2023-03-19T02:24:35.194Z,7.37
2023-03-19T02:25:44.800Z,8.47
2023-03-19T02:26:47.037Z,9.77
2023-03-19T02:27:48.398Z,7.57
2023-03-19T02:28:50.929Z,7.17
2023-03-19T02:29:57.533Z,6.00
2023-03-19T02:30:59.486Z,8.13
2023-03-19T02:32:00.863Z,7.70
2023-03-19T02:33:02.309Z,6.53
2023-03-19T02:34:06.019Z,7.20
2023-03-19T02:35:10.036Z,6.23
2023-03-19T02:36:17.227Z,8.60
2023-03-19T02:37:21.141Z,7.83
2023-03-19T02:38:23.432Z,11.30
2023-03-19T02:39:34.047Z,9.60
2023-03-19T02:40:41.227Z,8.03
2023-03-19T02:41:42.896Z,6.97
2023-03-19T02:42:44.251Z,7.40
2023-03-19T02:43:45.581Z,8.67
2023-03-19T02:44:47.671Z,6.67
2023-03-19T02:45:49.445Z,8.30
2023-03-19T02:46:50.821Z,7.13
2023-03-19T02:47:52.171Z,8.07
2023-03-19T02:48:53.673Z,5.93
2023-03-19T02:49:55.062Z,9.57
2023-03-19T02:50:57.616Z,7.13
2023-03-19T02:51:59.759Z,7.63
2023-03-19T02:53:01.200Z,5.80
2023-03-19T02:54:02.632Z,7.60
2023-03-19T02:55:04.154Z,7.73
2023-03-19T02:56:05.959Z,7.83
2023-03-19T02:57:07.365Z,9.27
2023-03-19T02:58:08.801Z,7.47
2023-03-19T02:59:10.254Z,6.17
2023-03-19T03:00:12.096Z,7.03
2023-03-19T03:01:13.840Z,8.67
2023-03-19T03:02:15.317Z,8.53
2023-03-19T03:03:17.059Z,7.30
2023-03-19T03:04:18.624Z,7.80
2023-03-19T03:05:21.151Z,12.03
2023-03-19T03:06:22.780Z,8.53
2023-03-19T03:07:24.114Z,8.33
2023-03-19T03:08:25.442Z,7.33
2023-03-19T03:09:27.222Z,7.97
2023-03-19T03:10:28.555Z,9.80
2023-03-19T03:11:30.170Z,8.97
2023-03-19T03:12:32.466Z,8.07
2023-03-19T03:13:33.885Z,8.63
2023-03-19T03:14:36.470Z,7.53
2023-03-19T03:15:38.121Z,9.60
2023-03-19T03:16:39.653Z,7.70
2023-03-19T03:17:41.798Z,11.27
2023-03-19T03:18:43.603Z,8.87
2023-03-19T03:19:44.932Z,9.20
2023-03-19T03:20:46.749Z,11.43
2023-03-19T03:21:48.159Z,9.63
2023-03-19T03:22:49.707Z,8.07
2023-03-19T03:23:51.521Z,7.43
2023-03-19T03:24:52.956Z,8.60
2023-03-19T03:25:54.318Z,8.27
2023-03-19T03:26:55.672Z,7.53
2023-03-19T03:27:57.138Z,6.73
2023-03-19T03:28:58.544Z,8.63
2023-03-19T03:29:59.898Z,6.83
2023-03-19T03:31:02.281Z,6.30
2023-03-19T03:32:03.657Z,8.03
2023-03-19T03:33:05.031Z,8.03
2023-03-19T03:34:06.411Z,9.77
2023-03-19T03:35:08.556Z,8.23
2023-03-19T03:36:09.956Z,7.97
2023-03-19T03:37:11.338Z,9.30
2023-03-19T03:38:12.762Z,6.20
2023-03-19T03:39:14.490Z,8.67
2023-03-19T03:40:17.127Z,9.30
2023-03-19T03:41:18.591Z,8.50
2023-03-19T03:42:20.089Z,8.60
2023-03-19T03:43:21.462Z,8.00
2023-03-19T03:44:23.292Z,7.57
2023-03-19T03:45:24.733Z,7.93
2023-03-19T03:46:27.056Z,7.27
2023-03-19T03:47:28.403Z,8.77
2023-03-19T03:48:29.761Z,8.03
2023-03-19T03:49:31.527Z,8.57
2023-03-19T03:50:33.155Z,7.47
2023-03-19T03:51:40.049Z,9.03
2023-03-19T03:52:42.062Z,8.03
2023-03-19T03:53:43.544Z,6.70
2023-03-19T03:54:46.445Z,7.50
2023-03-19T03:55:47.848Z,6.90
2023-03-19T03:56:50.755Z,8.30
2023-03-19T03:57:52.146Z,6.37
2023-03-19T03:58:53.554Z,10.20
2023-03-19T03:59:55.032Z,6.80
2023-03-19T04:00:56.590Z,9.23
2023-03-19T04:01:58.476Z,7.30
2023-03-19T04:03:00.334Z,5.83
2023-03-19T04:04:01.701Z,6.17
2023-03-19T04:05:03.352Z,7.77
2023-03-19T04:06:05.071Z,8.27
2023-03-19T04:07:07.102Z,7.30
2023-03-19T04:08:18.236Z,7.63
2023-03-19T04:09:19.746Z,8.03
2023-03-19T04:10:21.104Z,6.37
2023-03-19T04:11:23.317Z,7.77
2023-03-19T04:12:24.804Z,5.60
2023-03-19T04:13:26.397Z,8.73
2023-03-19T04:14:27.898Z,7.27
2023-03-19T04:15:29.974Z,7.90
2023-03-19T04:16:33.469Z,10.17
2023-03-19T04:17:35.626Z,7.93
2023-03-19T04:18:37.540Z,8.93
2023-03-19T04:19:38.925Z,7.77
2023-03-19T04:20:41.193Z,7.30
2023-03-19T04:21:42.670Z,7.10
2023-03-19T04:22:44.509Z,6.30
2023-03-19T04:23:45.946Z,8.47
2023-03-19T04:24:48.368Z,7.20
2023-03-19T04:25:50.367Z,9.00
2023-03-19T04:26:53.225Z,7.07
2023-03-19T04:27:56.755Z,6.10
2023-03-19T04:28:58.773Z,6.03
2023-03-19T04:30:00.775Z,7.63
2023-03-19T04:31:04.522Z,8.80
2023-03-19T04:32:08.166Z,7.93
2023-03-19T04:33:10.791Z,7.27
2023-03-19T04:34:12.912Z,8.50
2023-03-19T04:35:14.421Z,7.03
2023-03-19T04:36:17.910Z,6.37
2023-03-19T04:37:19.419Z,8.00
2023-03-19T04:38:26.315Z,8.70
2023-03-19T04:39:27.988Z,7.50
2023-03-19T04:40:29.398Z,6.10
2023-03-19T04:41:30.812Z,7.07
2023-03-19T04:42:41.413Z,7.43
2023-03-19T04:43:47.390Z,12.10
2023-03-19T04:44:49.501Z,6.60
2023-03-19T04:45:51.835Z,8.67
2023-03-19T04:46:53.225Z,8.00
2023-03-19T04:47:56.309Z,6.13
2023-03-19T04:48:57.654Z,6.47
2023-03-19T04:49:59.003Z,5.53
2023-03-19T04:51:01.002Z,8.43
2023-03-19T04:52:02.440Z,7.33
2023-03-19T04:53:03.948Z,6.60
2023-03-19T04:54:05.804Z,6.73
2023-03-19T04:55:07.987Z,8.80
2023-03-19T04:56:21.844Z,7.20
2023-03-19T04:57:23.223Z,7.70
2023-03-19T04:58:27.478Z,10.07
2023-03-19T04:59:34.315Z,10.73
2023-03-19T05:00:36.230Z,7.10
2023-03-19T05:01:38.076Z,6.40
2023-03-19T05:02:42.783Z,8.07
2023-03-19T05:03:44.260Z,5.67
2023-03-19T05:04:45.688Z,6.17
2023-03-19T05:05:49.451Z,7.03
2023-03-19T05:06:51.171Z,5.80
2023-03-19T05:07:52.474Z,8.50
2023-03-19T05:08:53.830Z,8.53
2023-03-19T05:09:56.470Z,7.53
2023-03-19T05:10:57.873Z,6.40
2023-03-19T05:12:01.963Z,6.77
2023-03-19T05:13:07.323Z,6.20
2023-03-19T05:14:12.715Z,8.83
2023-03-19T05:15:30.456Z,5.93
2023-03-19T05:16:36.467Z,6.93
2023-03-19T05:17:38.028Z,6.47
2023-03-19T05:18:48.822Z,7.20
2023-03-19T05:19:52.452Z,7.07
2023-03-19T05:20:54.580Z,6.63
2023-03-19T05:21:57.335Z,6.77
2023-03-19T05:23:00.035Z,7.63
2023-03-19T05:24:14.658Z,8.73
2023-03-19T05:25:16.108Z,5.90
2023-03-19T05:26:18.972Z,7.83
2023-03-19T05:27:53.032Z,5.73
2023-03-19T05:28:58.019Z,10.20
2023-03-19T05:30:08.809Z,7.13
2023-03-19T05:31:23.170Z,8.17
2023-03-19T05:32:28.295Z,6.07
2023-03-19T05:33:29.952Z,6.23
2023-03-19T05:34:31.492Z,7.27
2023-03-19T05:35:33.102Z,6.63
2023-03-19T05:36:35.919Z,7.00
2023-03-19T05:37:42.982Z,7.07
2023-03-19T05:38:44.390Z,6.50
2023-03-19T05:39:52.181Z,6.77
2023-03-19T05:40:53.583Z,7.80
2023-03-19T05:42:04.753Z,7.03
2023-03-19T05:43:07.581Z,8.10
2023-03-19T05:44:09.131Z,6.50
2023-03-19T05:45:30.990Z,6.77
2023-03-19T05:46:36.810Z,7.43
2023-03-19T05:47:39.135Z,6.83
2023-03-19T05:48:40.533Z,8.07
2023-03-19T05:49:42.795Z,9.50
2023-03-19T05:50:44.203Z,8.20
2023-03-19T05:51:52.661Z,5.43
2023-03-19T05:52:54.286Z,5.93
2023-03-19T05:53:55.806Z,7.70
2023-03-19T05:55:05.690Z,6.17
2023-03-19T05:56:22.744Z,6.27
2023-03-19T05:57:34.546Z,7.13
2023-03-19T05:58:42.256Z,6.07
2023-03-19T05:59:43.692Z,9.27
2023-03-19T06:01:02.832Z,4.90
2023-03-19T06:02:04.332Z,6.40
2023-03-19T06:03:06.500Z,6.57
2023-03-19T06:04:14.595Z,9.30
2023-03-19T06:05:16.735Z,6.83
2023-03-19T06:06:18.640Z,6.40
2023-03-19T06:07:20.996Z,7.63
2023-03-19T06:08:23.259Z,7.80
2023-03-19T06:09:38.727Z,8.13
2023-03-19T06:10:40.124Z,6.37
2023-03-19T06:11:45.113Z,7.40
2023-03-19T06:13:05.489Z,6.27
2023-03-19T06:14:16.148Z,6.97
2023-03-19T06:15:25.079Z,7.10
2023-03-19T06:16:52.450Z,6.63
2023-03-19T06:17:53.894Z,6.13
2023-03-19T06:18:55.465Z,7.93
2023-03-19T06:19:58.406Z,8.50
2023-03-19T06:20:59.865Z,5.90
2023-03-19T06:22:01.288Z,7.67
2023-03-19T06:23:02.589Z,5.73
2023-03-19T06:24:04.099Z,7.63
2023-03-19T06:25:09.502Z,6.97
2023-03-19T06:26:12.486Z,6.77
2023-03-19T06:27:22.575Z,5.10
2023-03-19T06:28:25.301Z,6.37
2023-03-19T06:29:27.088Z,6.87
2023-03-19T06:30:34.875Z,7.60
2023-03-19T06:31:41.621Z,5.53
2023-03-19T06:32:54.816Z,7.57
2023-03-19T06:33:57.130Z,5.77
2023-03-19T06:35:04.637Z,5.73
2023-03-19T06:36:06.391Z,7.30
2023-03-19T06:37:08.456Z,8.17
2023-03-19T06:38:09.783Z,9.37
2023-03-19T06:39:11.164Z,6.77
2023-03-19T06:40:12.868Z,7.40
2023-03-19T06:41:14.214Z,8.60
2023-03-19T06:42:16.981Z,9.47
2023-03-19T06:43:18.392Z,8.73
2023-03-19T06:44:20.041Z,10.30
2023-03-19T06:45:21.344Z,11.17
2023-03-19T06:46:23.181Z,8.53
2023-03-19T06:47:24.554Z,8.87
2023-03-19T06:48:25.868Z,8.60
2023-03-19T06:49:27.282Z,4.77
2023-03-19T06:50:28.643Z,8.17
2023-03-19T06:51:29.965Z,10.57
2023-03-19T06:52:31.297Z,8.13
2023-03-19T06:53:32.608Z,6.00
2023-03-19T06:54:33.984Z,6.47
2023-03-19T06:55:35.375Z,6.33
2023-03-19T06:56:36.696Z,6.73
2023-03-19T06:57:38.195Z,6.57
2023-03-19T06:58:39.461Z,5.50
2023-03-19T06:59:41.045Z,7.90
2023-03-19T07:00:42.574Z,6.83
2023-03-19T07:01:43.917Z,7.23
2023-03-19T07:02:45.263Z,10.50
2023-03-19T07:03:46.610Z,6.53
2023-03-19T07:04:48.115Z,3.83
2023-03-19T07:05:52.630Z,6.93
2023-03-19T07:06:54.027Z,6.57
2023-03-19T07:07:55.340Z,6.83
2023-03-19T07:08:57.055Z,6.50
2023-03-19T07:09:58.362Z,6.20
2023-03-19T07:11:03.967Z,5.53
2023-03-19T07:12:05.562Z,6.70
2023-03-19T07:13:07.182Z,5.10
2023-03-19T07:14:08.592Z,5.30
2023-03-19T07:15:10.138Z,6.33
2023-03-19T07:16:11.467Z,6.23
2023-03-19T07:17:12.884Z,5.37
2023-03-19T07:18:14.205Z,5.77
2023-03-19T07:19:15.688Z,8.00
2023-03-19T07:20:17.260Z,7.23
2023-03-19T07:21:18.612Z,6.43
2023-03-19T07:22:20.071Z,7.37
2023-03-19T07:23:25.219Z,6.03
2023-03-19T07:24:26.576Z,8.03
2023-03-19T07:25:27.912Z,8.10
2023-03-19T07:26:29.293Z,4.83
2023-03-19T07:27:30.887Z,6.13
2023-03-19T07:28:32.232Z,5.23
2023-03-19T07:29:33.535Z,6.03
2023-03-19T07:30:36.021Z,5.57
2023-03-19T07:31:37.589Z,5.30
2023-03-19T07:32:39.081Z,6.30
2023-03-19T07:33:40.481Z,7.27
2023-03-19T07:34:41.874Z,6.17
2023-03-19T07:35:43.290Z,5.67
2023-03-19T07:36:44.840Z,7.13
2023-03-19T07:37:46.227Z,7.63
2023-03-19T07:38:47.610Z,6.43
2023-03-19T07:39:48.956Z,6.40
2023-03-19T07:41:01.311Z,8.23
2023-03-19T07:42:03.635Z,5.53
2023-03-19T07:43:05.279Z,4.77
2023-03-19T07:44:06.647Z,5.97
2023-03-19T07:45:08.342Z,10.13
2023-03-19T07:46:09.772Z,5.33
2023-03-19T07:47:22.577Z,5.20
2023-03-19T07:48:29.475Z,5.37
2023-03-19T07:49:31.273Z,6.33
2023-03-19T07:50:33.016Z,6.73
2023-03-19T07:51:34.724Z,6.37
2023-03-19T07:52:36.183Z,5.33
2023-03-19T07:53:37.493Z,4.77
2023-03-19T07:54:38.836Z,6.60
2023-03-19T07:55:43.195Z,6.00
2023-03-19T07:56:44.487Z,6.80
2023-03-19T07:57:45.818Z,5.03
2023-03-19T07:58:47.176Z,6.20
2023-03-19T07:59:48.533Z,6.60
2023-03-19T08:00:50.016Z,6.97
2023-03-19T08:01:51.375Z,5.23
2023-03-19T08:02:52.672Z,6.27
2023-03-19T08:03:53.991Z,5.10
2023-03-19T08:04:55.809Z,5.07
2023-03-19T08:05:57.260Z,6.17
2023-03-19T08:06:58.827Z,5.97
2023-03-19T08:08:00.173Z,4.50
2023-03-19T08:09:01.474Z,6.43
2023-03-19T08:10:06.188Z,7.17
2023-03-19T08:11:07.742Z,7.83
2023-03-19T08:12:09.123Z,6.23
2023-03-19T08:13:10.511Z,5.77
2023-03-19T08:14:12.004Z,6.07
2023-03-19T08:15:13.396Z,5.97
2023-03-19T08:16:14.909Z,6.70
2023-03-19T08:17:16.560Z,5.40
2023-03-19T08:18:18.001Z,6.03
2023-03-19T08:19:19.338Z,6.57
2023-03-19T08:20:21.343Z,4.60
2023-03-19T08:21:22.736Z,6.27
2023-03-19T08:22:24.041Z,5.33
2023-03-19T08:23:25.372Z,5.33
2023-03-19T08:24:26.679Z,7.63
2023-03-19T08:25:32.241Z,5.67
2023-03-19T08:26:33.653Z,4.30
2023-03-19T08:27:38.135Z,6.50
2023-03-19T08:28:39.599Z,5.37
2023-03-19T08:29:41.004Z,5.63
2023-03-19T08:30:42.673Z,6.97
2023-03-19T08:32:59.602Z,3.77
2023-03-19T08:34:03.162Z,5.10
2023-03-19T08:35:06.067Z,5.03
2023-03-19T08:36:16.873Z,4.33
2023-03-19T08:37:18.790Z,7.07
2023-03-19T08:38:20.139Z,4.53
2023-03-19T08:39:21.456Z,6.22
2023-03-19T08:40:23.035Z,4.65
2023-03-19T08:41:24.592Z,3.60
2023-03-19T08:42:25.934Z,4.47
2023-03-19T08:43:27.291Z,4.93
2023-03-19T08:44:28.641Z,4.70
2023-03-19T08:45:30.064Z,3.50
2023-03-19T08:46:31.950Z,3.05
2023-03-19T08:47:33.304Z,5.77
2023-03-19T08:48:34.617Z,4.90
2023-03-19T08:49:36.010Z,5.43
2023-03-19T08:50:37.373Z,5.30
2023-03-19T08:51:39.053Z,4.47
2023-03-19T08:52:40.440Z,5.78
2023-03-19T08:53:41.771Z,5.17
2023-03-19T08:54:43.144Z,4.37
2023-03-19T08:55:44.487Z,3.20
2023-03-19T08:56:46.015Z,4.23
2023-03-19T08:57:47.445Z,4.40
2023-03-19T08:58:48.771Z,4.67
2023-03-19T08:59:50.262Z,3.77
2023-03-19T09:00:51.773Z,3.42
2023-03-19T09:01:53.734Z,4.00
2023-03-19T09:02:55.388Z,4.37
2023-03-19T09:03:56.706Z,5.13
2023-03-19T09:04:58.088Z,6.17
2023-03-19T09:06:03.260Z,5.70
2023-03-19T09:07:04.702Z,4.23
2023-03-19T09:08:06.396Z,5.57
2023-03-19T09:09:07.827Z,6.80
2023-03-19T09:10:09.438Z,4.40
2023-03-19T09:11:11.177Z,2.73
2023-03-19T09:12:13.732Z,3.90
2023-03-19T09:13:15.347Z,3.67
2023-03-19T09:14:17.882Z,5.00
2023-03-19T09:15:19.221Z,3.80
2023-03-19T09:16:20.563Z,4.40
2023-03-19T09:17:21.966Z,4.60
2023-03-19T09:18:26.283Z,3.07
2023-03-19T09:19:27.613Z,4.07
2023-03-19T09:20:28.929Z,4.70
2023-03-19T09:21:30.212Z,3.83
2023-03-19T09:22:31.540Z,5.05
2023-03-19T09:23:33.085Z,3.13
2023-03-19T09:24:34.396Z,5.82
2023-03-19T09:25:35.924Z,4.93
2023-03-19T09:26:37.443Z,4.10
2023-03-19T09:27:38.768Z,5.55
2023-03-19T09:28:40.138Z,5.93
2023-03-19T09:29:41.524Z,3.97
2023-03-19T09:30:44.966Z,4.72
2023-03-19T09:31:46.706Z,4.30
2023-03-19T09:32:48.210Z,4.93
2023-03-19T09:33:50.216Z,3.13
2023-03-19T09:34:51.494Z,4.63
2023-03-19T09:35:53.633Z,5.45
2023-03-19T09:36:55.036Z,5.72
2023-03-19T09:37:56.922Z,3.83
2023-03-19T09:38:58.276Z,3.47
2023-03-19T09:39:59.629Z,6.38
2023-03-19T09:41:20.762Z,3.67
2023-03-19T09:42:28.304Z,4.35
2023-03-19T09:43:33.003Z,5.20
2023-03-19T09:44:35.697Z,4.18
2023-03-19T09:45:37.759Z,4.88
2023-03-19T09:46:39.172Z,5.63
2023-03-19T09:47:41.774Z,5.53
2023-03-19T09:48:50.551Z,4.88
2023-03-19T09:49:53.357Z,5.55
2023-03-19T09:50:55.964Z,4.88
2023-03-19T09:52:01.442Z,6.30
2023-03-19T09:53:15.336Z,6.80
2023-03-19T09:54:35.530Z,5.43
2023-03-19T09:55:45.595Z,5.57
2023-03-19T09:56:47.008Z,4.78
2023-03-19T09:57:48.574Z,5.18
2023-03-19T09:58:49.864Z,5.55
2023-03-19T09:59:53.121Z,5.07
2023-03-19T10:00:55.319Z,4.78
2023-03-19T10:02:03.356Z,5.70
2023-03-19T10:03:14.331Z,5.27
2023-03-19T10:04:25.764Z,7.75
2023-03-19T10:05:31.438Z,4.97
2023-03-19T10:06:38.539Z,3.85
2023-03-19T10:07:58.147Z,6.00
2023-03-19T10:09:04.545Z,4.43
2023-03-19T10:10:05.938Z,5.27
2023-03-19T10:11:15.279Z,5.90
2023-03-19T10:12:22.749Z,5.15
2023-03-19T10:13:24.076Z,5.77
2023-03-19T10:14:37.176Z,4.80
2023-03-19T10:15:39.479Z,6.67
2023-03-19T10:16:41.778Z,3.95
2023-03-19T10:17:47.748Z,4.70
2023-03-19T10:18:50.818Z,4.10
2023-03-19T10:19:58.466Z,5.50
2023-03-19T10:21:03.300Z,3.50
2023-03-19T10:22:08.439Z,4.50
2023-03-19T10:23:28.894Z,4.18
2023-03-19T10:24:39.835Z,4.70
2023-03-19T10:25:43.180Z,4.10
2023-03-19T10:26:48.174Z,7.22
2023-03-19T10:27:54.400Z,5.10
2023-03-19T10:29:08.484Z,4.23
2023-03-19T10:30:16.754Z,5.87
2023-03-19T10:31:18.776Z,4.97
2023-03-19T10:32:20.460Z,7.10
2023-03-19T10:33:21.893Z,3.93
2023-03-19T10:34:32.707Z,4.23
2023-03-19T10:35:57.661Z,4.93
2023-03-19T10:37:03.815Z,3.97
2023-03-19T10:38:25.634Z,4.87
2023-03-19T10:39:27.541Z,5.60
2023-03-19T10:40:40.077Z,4.80
2023-03-19T10:41:56.612Z,3.37
2023-03-19T10:43:04.105Z,4.90
2023-03-19T10:44:25.466Z,4.30
2023-03-19T10:45:28.677Z,4.37
2023-03-19T10:46:40.048Z,3.53
2023-03-19T10:47:43.093Z,4.93
2023-03-19T10:48:45.844Z,3.67
2023-03-19T10:49:47.199Z,5.13
2023-03-19T10:50:50.982Z,3.93
2023-03-19T10:51:53.000Z,4.80
2023-03-19T10:53:03.998Z,4.73
2023-03-19T10:54:19.020Z,4.45
2023-03-19T10:55:24.816Z,4.70
2023-03-19T10:56:29.447Z,4.18
2023-03-19T10:57:33.472Z,4.73
2023-03-19T10:58:36.099Z,4.00
2023-03-19T10:59:38.327Z,5.37
2023-03-19T11:00:39.668Z,4.50
2023-03-19T11:01:41.722Z,5.40
2023-03-19T11:02:47.153Z,4.87
2023-03-19T11:03:55.373Z,6.17
2023-03-19T11:05:23.300Z,6.40
2023-03-19T11:06:24.925Z,6.00
2023-03-19T11:07:27.068Z,4.90
2023-03-19T11:08:35.575Z,4.90
2023-03-19T11:09:38.526Z,4.67
2023-03-19T11:10:45.770Z,3.60
2023-03-19T11:11:50.675Z,3.33
2023-03-19T11:12:57.806Z,3.53
2023-03-19T11:13:59.398Z,3.37
2023-03-19T11:15:03.881Z,4.03
2023-03-19T11:16:05.730Z,3.20
2023-03-19T11:17:16.440Z,5.37
2023-03-19T11:18:31.745Z,4.83
2023-03-19T11:19:34.607Z,5.73
2023-03-19T11:20:37.651Z,7.47
2023-03-19T11:21:38.950Z,3.47
2023-03-19T11:22:40.626Z,5.27
2023-03-19T11:23:42.344Z,4.17
2023-03-19T11:24:51.536Z,14.13
2023-03-19T11:25:56.654Z,66.70
2023-03-19T11:26:58.470Z,15.27
2023-03-19T11:28:06.196Z,16.53
2023-03-19T11:29:09.404Z,62.67
2023-03-19T11:30:17.123Z,22.57
2023-03-19T11:31:19.187Z,25.17
2023-03-19T11:32:39.387Z,18.13
2023-03-19T11:33:47.761Z,5.13
2023-03-19T11:34:53.400Z,6.50
2023-03-19T11:36:02.821Z,3.23
2023-03-19T11:37:23.395Z,4.83
2023-03-19T11:38:33.870Z,6.17
2023-03-19T11:39:46.484Z,5.00
2023-03-19T11:41:18.454Z,3.53
2023-03-19T11:42:38.581Z,3.50
2023-03-19T11:43:58.932Z,5.77
2023-03-19T11:45:35.775Z,6.23
2023-03-19T11:46:54.729Z,6.30
2023-03-19T11:48:11.120Z,4.63
2023-03-19T11:49:13.074Z,4.77
2023-03-19T11:50:23.425Z,4.47
2023-03-19T11:51:46.121Z,5.33
2023-03-19T11:52:54.345Z,3.20
2023-03-19T11:54:10.778Z,3.57
2023-03-19T11:55:19.648Z,4.70
2023-03-19T11:56:39.733Z,4.13
2023-03-19T11:57:55.148Z,4.60
2023-03-19T11:59:20.358Z,5.13
2023-03-19T12:00:36.247Z,3.87
2023-03-19T12:01:56.313Z,3.87
2023-03-19T12:03:16.542Z,4.87
2023-03-19T12:04:43.046Z,5.60
2023-03-19T12:05:53.526Z,8.67
2023-03-19T12:07:13.488Z,4.37
2023-03-19T12:08:23.608Z,4.70
2023-03-19T12:09:29.652Z,4.10
2023-03-19T12:10:42.248Z,4.63
2023-03-19T12:11:48.109Z,3.47
2023-03-19T12:12:57.436Z,3.70
2023-03-19T12:14:16.220Z,3.80
2023-03-19T12:15:36.623Z,4.40
2023-03-19T12:16:46.133Z,3.40
2023-03-19T12:18:06.901Z,7.83
2023-03-19T12:19:11.626Z,3.27
2023-03-19T12:20:19.426Z,3.40
2023-03-19T12:21:40.538Z,3.97
2023-03-19T12:22:52.497Z,4.70
2023-03-19T12:23:53.820Z,4.57
2023-03-19T12:25:04.397Z,3.40
2023-03-19T12:26:25.489Z,2.93
2023-03-19T12:27:41.371Z,5.97
2023-03-19T12:28:51.994Z,4.73
2023-03-19T12:30:00.965Z,4.10
2023-03-19T12:31:08.393Z,4.00
2023-03-19T12:32:26.217Z,4.93
2023-03-19T12:33:35.347Z,3.87
2023-03-19T12:34:39.575Z,7.47
2023-03-19T12:35:43.234Z,3.73
2023-03-19T12:37:04.833Z,4.73
2023-03-19T12:38:06.163Z,3.93
2023-03-19T12:39:12.375Z,4.83
2023-03-19T12:40:15.196Z,2.23
2023-03-19T12:41:24.174Z,4.13
2023-03-19T12:42:29.606Z,2.97
2023-03-19T12:43:52.106Z,3.43
2023-03-19T12:44:55.216Z,3.90
2023-03-19T12:45:59.586Z,4.33
2023-03-19T12:47:06.949Z,4.47
2023-03-19T12:48:13.757Z,4.35
2023-03-19T12:49:19.248Z,4.57
2023-03-19T12:50:21.530Z,5.03
2023-03-19T12:51:28.785Z,3.25
2023-03-19T12:52:43.004Z,6.22
2023-03-19T12:53:50.748Z,4.33
2023-03-19T12:55:13.432Z,3.57
2023-03-19T12:56:24.048Z,3.80
2023-03-19T12:57:40.055Z,4.73
2023-03-19T12:58:58.957Z,2.30
2023-03-19T13:00:07.030Z,3.60
2023-03-19T13:01:08.963Z,5.07
2023-03-19T13:02:27.106Z,3.10
2023-03-19T13:03:54.061Z,4.00
2023-03-19T13:04:57.384Z,3.77
2023-03-19T13:06:03.775Z,3.17
2023-03-19T13:07:16.155Z,4.33
2023-03-19T13:08:35.103Z,2.63
2023-03-19T13:09:43.255Z,3.20
2023-03-19T13:10:44.583Z,3.33
2023-03-19T13:11:54.795Z,3.33
2023-03-19T13:12:56.553Z,2.33
2023-03-19T13:14:08.539Z,3.07
2023-03-19T13:15:16.051Z,3.00
2023-03-19T13:16:23.375Z,3.57
2023-03-19T13:17:30.942Z,4.47
2023-03-19T13:18:32.271Z,3.10
2023-03-19T13:19:38.825Z,3.53
2023-03-19T13:20:43.255Z,1.70
2023-03-19T13:21:46.430Z,4.07
2023-03-19T13:22:51.977Z,3.23
2023-03-19T13:24:21.080Z,4.70
2023-03-19T13:25:29.571Z,3.63
2023-03-19T13:26:31.354Z,2.93
2023-03-19T13:27:36.915Z,4.47
2023-03-19T13:28:53.073Z,5.47
2023-03-19T13:30:03.800Z,3.10
2023-03-19T13:31:17.721Z,3.23
2023-03-19T13:32:28.555Z,4.67
2023-03-19T13:33:31.602Z,2.93
2023-03-19T13:34:34.702Z,2.27
2023-03-19T13:36:05.404Z,3.87
2023-03-19T13:37:18.115Z,3.00
2023-03-19T13:38:25.544Z,3.23
2023-03-19T13:39:29.202Z,4.67
2023-03-19T13:40:44.457Z,3.00
2023-03-19T13:41:53.560Z,3.50
2023-03-19T13:42:59.308Z,3.00
2023-03-19T13:44:20.636Z,4.53
2023-03-19T13:45:29.054Z,2.93
2023-03-19T13:46:34.885Z,3.43
2023-03-19T13:47:37.143Z,3.03
2023-03-19T13:48:45.140Z,3.67
2023-03-19T13:50:16.266Z,2.80
2023-03-19T13:51:18.048Z,2.83
2023-03-19T13:52:20.244Z,2.47
2023-03-19T13:53:33.795Z,2.60
2023-03-19T13:54:36.810Z,2.37
2023-03-19T13:55:46.399Z,4.03
2023-03-19T13:57:05.006Z,2.83
2023-03-19T13:58:37.335Z,1.77
2023-03-19T13:59:39.280Z,1.80
2023-03-19T14:00:43.739Z,4.23
2023-03-19T14:01:45.248Z,2.60
2023-03-19T14:02:47.719Z,1.90
2023-03-19T14:04:00.013Z,2.30
2023-03-19T14:05:08.499Z,2.50
2023-03-19T14:06:29.890Z,2.37
2023-03-19T14:07:40.366Z,2.03
2023-03-19T14:08:43.974Z,2.80
2023-03-19T14:09:48.534Z,2.73
2023-03-19T14:10:52.142Z,1.97
2023-03-19T14:11:53.475Z,2.80
2023-03-19T14:13:07.362Z,6.00
2023-03-19T14:14:13.094Z,2.73
2023-03-19T14:15:24.184Z,2.70
2023-03-19T14:16:29.609Z,3.00
2023-03-19T14:17:33.405Z,3.37
2023-03-19T14:18:39.393Z,2.40
2023-03-19T14:19:41.483Z,5.87
2023-03-19T14:20:52.328Z,6.90
2023-03-19T14:21:54.665Z,3.17
2023-03-19T14:23:08.967Z,5.63
2023-03-19T14:24:55.356Z,6.70
2023-03-19T14:26:05.086Z,5.87
2023-03-19T14:27:16.901Z,4.53
2023-03-19T14:28:19.737Z,4.60
2023-03-19T14:29:22.495Z,3.80